Time;durP1;ratioP1;P1;durP2;ratioP2;P2;SDS_P1;SDS_P2;PMS_P1;PMS_P2;Temp;Humidity;BMP_temperature;BMP_pressure;BME280_temperature;BME280_humidity;BME280_pressure;Samples;Min_cycle;Max_cycle;Signal;HPM_P1;HPM_P2
2024/03/19 00:00:32;;;;;;;17.25;12.88;;;;;;;;;;5072706;28;20028;-69
2024/03/19 00:02:58;;;;;;;23.15;12.90;;;;;;;;;;5090125;28;20028;-69
2024/03/19 00:05:25;;;;;;;19.55;12.93;;;;;;;;;;5089478;28;20035;-69
2024/03/19 00:07:51;;;;;;;20.52;14.05;;;;;;;;;;5072553;28;20027;-70
2024/03/19 00:10:17;;;;;;;16.38;13.80;;;;;;;;;;5072896;28;20351;-70
2024/03/19 00:12:43;;;;;;;16.13;13.60;;;;;;;;;;5073287;28;20190;-69
2024/03/19 00:15:09;;;;;;;18.40;13.02;;;;;;;;;;5094545;28;20212;-70
2024/03/19 00:17:36;;;;;;;14.38;12.75;;;;;;;;;;5076247;28;20422;-70
2024/03/19 00:20:05;;;;;;;22.90;14.27;;;;;;;;;;5093056;28;20012;-70
2024/03/19 00:22:32;;;;;;;18.65;13.85;;;;;;;;;;5093655;28;20435;-70
2024/03/19 00:24:58;;;;;;;20.00;13.77;;;;;;;;;;5076989;28;20078;-70
2024/03/19 00:27:24;;;;;;;16.65;12.05;;;;;;;;;;5094902;28;20158;-70
2024/03/19 00:29:50;;;;;;;16.73;13.25;;;;;;;;;;5095046;28;20032;-70
2024/03/19 00:32:16;;;;;;;19.33;13.90;;;;;;;;;;5075352;28;20020;-70
2024/03/19 00:34:42;;;;;;;17.10;13.90;;;;;;;;;;5075725;28;20115;-69
2024/03/19 00:37:08;;;;;;;16.30;13.10;;;;;;;;;;5089193;28;20029;-69
2024/03/19 00:39:35;;;;;;;16.27;13.07;;;;;;;;;;5074157;28;20024;-71
2024/03/19 00:42:01;;;;;;;19.45;13.90;;;;;;;;;;5054941;28;20028;-69
2024/03/19 00:44:28;;;;;;;19.92;14.85;;;;;;;;;;5073773;28;20017;-71
2024/03/19 00:46:54;;;;;;;17.52;13.55;;;;;;;;;;5055600;28;20082;-70
2024/03/19 00:49:20;;;;;;;18.00;14.15;;;;;;;;;;5060785;28;20123;-70
2024/03/19 00:51:46;;;;;;;19.73;13.50;;;;;;;;;;5073362;28;20036;-70
2024/03/19 00:54:13;;;;;;;19.05;14.32;;;;;;;;;;5080246;22;20048;-67
2024/03/19 00:56:39;;;;;;;18.13;13.05;;;;;;;;;;5093152;28;20070;-67
2024/03/19 00:59:05;;;;;;;21.40;13.75;;;;;;;;;;5094544;28;20131;-67
2024/03/19 01:01:31;;;;;;;20.77;13.90;;;;;;;;;;5093834;28;20041;-67
2024/03/19 01:03:58;;;;;;;16.33;12.50;;;;;;;;;;5093763;28;20020;-66
2024/03/19 01:06:25;;;;;;;18.90;13.95;;;;;;;;;;5076487;28;20024;-67
2024/03/19 01:08:51;;;;;;;16.75;13.32;;;;;;;;;;5094635;28;20035;-67
2024/03/19 01:11:17;;;;;;;16.98;13.07;;;;;;;;;;5093309;28;20024;-67
2024/03/19 01:13:43;;;;;;;18.30;13.98;;;;;;;;;;5094130;28;20366;-67
2024/03/19 01:16:09;;;;;;;15.60;13.90;;;;;;;;;;5075714;28;20028;-67
2024/03/19 01:18:35;;;;;;;19.05;13.77;;;;;;;;;;5090778;28;20455;-67
2024/03/19 01:21:02;;;;;;;17.13;14.45;;;;;;;;;;5073275;28;20031;-66
2024/03/19 01:23:28;;;;;;;20.38;15.55;;;;;;;;;;5073387;28;20573;-67
2024/03/19 01:25:55;;;;;;;22.23;14.43;;;;;;;;;;5072022;28;20471;-67
2024/03/19 01:28:21;;;;;;;19.90;14.80;;;;;;;;;;5072259;28;20098;-68
2024/03/19 01:30:47;;;;;;;18.02;14.98;;;;;;;;;;5071918;28;20021;-67
2024/03/19 01:33:14;;;;;;;16.17;13.63;;;;;;;;;;5072353;28;20029;-67
2024/03/19 01:35:40;;;;;;;16.83;13.90;;;;;;;;;;5082214;28;20034;-66
2024/03/19 01:38:06;;;;;;;18.95;13.95;;;;;;;;;;5092217;28;20158;-67
2024/03/19 01:40:32;;;;;;;18.48;14.45;;;;;;;;;;5092017;28;20023;-66
2024/03/19 01:42:59;;;;;;;18.05;14.02;;;;;;;;;;5091710;28;20035;-67
2024/03/19 01:45:25;;;;;;;16.20;13.50;;;;;;;;;;5093080;28;20502;-67
2024/03/19 01:47:51;;;;;;;16.83;14.48;;;;;;;;;;5091983;28;20036;-67
2024/03/19 01:50:19;;;;;;;18.60;14.45;;;;;;;;;;5091640;28;20028;-66
2024/03/19 01:52:48;;;;;;;18.73;13.73;;;;;;;;;;5070452;28;20036;-66
2024/03/19 01:55:15;;;;;;;16.98;13.65;;;;;;;;;;5092566;28;20024;-68
2024/03/19 01:57:43;;;;;;;17.25;14.50;;;;;;;;;;5091939;28;20035;-67
2024/03/19 02:00:09;;;;;;;17.08;13.98;;;;;;;;;;5092074;28;20020;-68
2024/03/19 02:02:36;;;;;;;20.05;14.50;;;;;;;;;;5091319;28;20474;-68
2024/03/19 02:05:04;;;;;;;16.98;14.05;;;;;;;;;;5091621;28;20056;-66
2024/03/19 02:07:31;;;;;;;20.52;14.77;;;;;;;;;;5090233;28;20016;-67
2024/03/19 02:09:57;;;;;;;18.17;14.32;;;;;;;;;;5092264;28;20450;-68
2024/03/19 02:12:24;;;;;;;14.60;12.63;;;;;;;;;;5092748;28;20039;-65
2024/03/19 02:14:50;;;;;;;17.75;13.88;;;;;;;;;;5085349;28;20052;-67
2024/03/19 02:17:20;;;;;;;15.30;12.93;;;;;;;;;;5096739;28;20385;-67
2024/03/19 02:19:46;;;;;;;18.25;14.18;;;;;;;;;;5113352;28;20074;-67
2024/03/19 02:22:13;;;;;;;17.80;13.43;;;;;;;;;;5112866;28;20043;-67
2024/03/19 02:24:40;;;;;;;16.48;13.30;;;;;;;;;;5104005;28;20024;-67
2024/03/19 02:27:06;;;;;;;17.33;13.10;;;;;;;;;;5092647;28;20032;-68
2024/03/19 02:29:33;;;;;;;15.75;13.60;;;;;;;;;;5091776;28;20045;-67
2024/03/19 02:31:59;;;;;;;17.52;12.60;;;;;;;;;;5091496;28;20073;-67
2024/03/19 02:34:25;;;;;;;15.75;13.40;;;;;;;;;;5092392;28;20023;-65
2024/03/19 02:36:51;;;;;;;17.45;12.93;;;;;;;;;;5092329;28;20050;-67
2024/03/19 02:39:17;;;;;;;21.48;13.68;;;;;;;;;;5092795;28;20364;-68
2024/03/19 02:41:43;;;;;;;17.52;12.77;;;;;;;;;;5078921;28;20391;-68
2024/03/19 02:44:09;;;;;;;16.50;13.43;;;;;;;;;;5072307;28;20024;-67
2024/03/19 02:46:36;;;;;;;19.17;14.13;;;;;;;;;;5071831;28;20028;-67
2024/03/19 02:49:02;;;;;;;16.30;14.02;;;;;;;;;;5071801;28;20032;-67
2024/03/19 02:51:28;;;;;;;17.10;12.82;;;;;;;;;;5072441;28;20575;-69
2024/03/19 02:53:54;;;;;;;15.75;13.82;;;;;;;;;;5072254;28;20047;-67
2024/03/19 02:56:20;;;;;;;17.98;14.00;;;;;;;;;;5057299;28;20028;-67
2024/03/19 02:58:46;;;;;;;19.75;13.88;;;;;;;;;;5093000;28;20431;-68
2024/03/19 03:01:12;;;;;;;20.67;14.20;;;;;;;;;;5092456;28;20016;-67
2024/03/19 03:03:39;;;;;;;16.30;12.63;;;;;;;;;;5092616;28;20479;-66
2024/03/19 03:06:05;;;;;;;15.80;14.18;;;;;;;;;;5074921;28;20039;-67
2024/03/19 03:08:31;;;;;;;17.30;13.38;;;;;;;;;;5092333;28;20032;-68
2024/03/19 03:10:57;;;;;;;18.52;13.02;;;;;;;;;;5082044;28;20021;-67
2024/03/19 03:13:23;;;;;;;15.68;13.35;;;;;;;;;;5070497;28;20036;-68
2024/03/19 03:15:49;;;;;;;15.93;13.77;;;;;;;;;;5070196;28;20020;-68
2024/03/19 03:18:15;;;;;;;21.17;15.85;;;;;;;;;;5070546;28;20025;-67
2024/03/19 03:20:42;;;;;;;17.75;14.35;;;;;;;;;;5070197;28;20104;-67
2024/03/19 03:23:08;;;;;;;19.85;15.25;;;;;;;;;;5070641;28;20025;-67
2024/03/19 03:25:34;;;;;;;17.98;13.50;;;;;;;;;;5071010;28;20112;-68
2024/03/19 03:28:00;;;;;;;17.52;13.88;;;;;;;;;;5075228;28;20031;-67
2024/03/19 03:30:26;;;;;;;17.60;13.20;;;;;;;;;;5085115;28;20024;-67
2024/03/19 03:32:52;;;;;;;16.63;14.20;;;;;;;;;;5091379;28;20122;-67
2024/03/19 03:35:19;;;;;;;17.13;14.30;;;;;;;;;;5092886;28;20063;-67
2024/03/19 03:37:45;;;;;;;20.35;13.73;;;;;;;;;;5092146;28;20021;-67
2024/03/19 03:40:17;;;;;;;18.13;15.18;;;;;;;;;;5093445;28;20054;-67
2024/03/19 03:42:44;;;;;;;21.83;15.00;;;;;;;;;;5088066;28;20043;-67
2024/03/19 03:45:13;;;;;;;19.20;15.95;;;;;;;;;;5070591;28;20475;-68
2024/03/19 03:47:39;;;;;;;21.13;16.27;;;;;;;;;;5071328;28;20104;-66
2024/03/19 03:50:09;;;;;;;22.10;17.70;;;;;;;;;;5073904;28;20040;-67
2024/03/19 03:52:35;;;;;;;30.13;18.35;;;;;;;;;;5073401;28;20075;-66
2024/03/19 03:55:05;;;;;;;27.27;18.73;;;;;;;;;;5073822;28;20036;-66
2024/03/19 03:57:33;;;;;;;26.17;18.77;;;;;;;;;;5073890;28;20019;-67
2024/03/19 03:59:59;;;;;;;30.40;20.77;;;;;;;;;;5082332;28;20088;-67
2024/03/19 04:02:25;;;;;;;29.23;20.02;;;;;;;;;;5079786;28;20064;-67
2024/03/19 04:04:54;;;;;;;36.50;22.50;;;;;;;;;;5073549;28;20043;-67
2024/03/19 04:07:20;;;;;;;37.13;22.70;;;;;;;;;;5073399;28;20056;-67
2024/03/19 04:09:46;;;;;;;37.50;23.60;;;;;;;;;;5055578;28;20124;-67
2024/03/19 04:12:12;;;;;;;36.88;22.73;;;;;;;;;;5073430;28;20368;-66
2024/03/19 04:14:38;;;;;;;35.05;22.65;;;;;;;;;;5073480;28;20472;-66
2024/03/19 04:17:04;;;;;;;35.13;22.33;;;;;;;;;;5090976;28;20055;-67
2024/03/19 04:19:30;;;;;;;32.33;22.27;;;;;;;;;;5075403;28;20490;-67
2024/03/19 04:21:56;;;;;;;31.73;22.15;;;;;;;;;;5074640;28;20115;-67
2024/03/19 04:24:22;;;;;;;38.83;23.95;;;;;;;;;;5093648;28;20020;-67
2024/03/19 04:26:48;;;;;;;39.55;23.52;;;;;;;;;;5093497;28;20028;-67
2024/03/19 04:29:18;;;;;;;39.20;23.50;;;;;;;;;;5093522;28;20372;-67
2024/03/19 04:31:44;;;;;;;35.85;24.25;;;;;;;;;;5069316;28;20013;-67
2024/03/19 04:34:11;;;;;;;45.13;25.35;;;;;;;;;;5055207;28;20443;-67
2024/03/19 04:36:37;;;;;;;47.08;25.48;;;;;;;;;;5072965;28;20032;-67
2024/03/19 04:39:03;;;;;;;45.65;26.70;;;;;;;;;;5072958;28;20464;-67
2024/03/19 04:41:29;;;;;;;46.83;25.80;;;;;;;;;;5072573;28;20020;-68
2024/03/19 04:43:55;;;;;;;49.85;25.65;;;;;;;;;;5072579;28;20104;-66
2024/03/19 04:46:21;;;;;;;47.78;25.50;;;;;;;;;;5054781;28;20020;-67
2024/03/19 04:48:47;;;;;;;35.95;26.35;;;;;;;;;;5073705;28;20024;-67
2024/03/19 04:51:14;;;;;;;41.38;24.35;;;;;;;;;;5072002;28;20459;-67
2024/03/19 04:53:40;;;;;;;38.60;24.65;;;;;;;;;;5072723;28;20035;-67
2024/03/19 04:56:06;;;;;;;33.38;23.27;;;;;;;;;;5072732;28;20029;-67
2024/03/19 04:58:32;;;;;;;38.92;22.77;;;;;;;;;;5072563;28;20035;-68
2024/03/19 05:00:58;;;;;;;41.80;23.92;;;;;;;;;;5071988;28;20021;-66
2024/03/19 05:03:24;;;;;;;33.53;23.33;;;;;;;;;;5083228;28;20028;-68
2024/03/19 05:05:50;;;;;;;34.10;23.50;;;;;;;;;;5093562;28;20028;-68
2024/03/19 05:08:16;;;;;;;35.35;23.15;;;;;;;;;;5093053;28;20503;-66
2024/03/19 05:10:44;;;;;;;32.13;21.92;;;;;;;;;;5093035;28;20054;-68
2024/03/19 05:13:10;;;;;;;30.10;22.23;;;;;;;;;;5092632;28;20046;-68
2024/03/19 05:15:36;;;;;;;34.72;22.95;;;;;;;;;;5092573;28;20016;-67
2024/03/19 05:18:02;;;;;;;31.83;21.77;;;;;;;;;;5092651;28;20134;-67
2024/03/19 05:20:28;;;;;;;31.08;21.27;;;;;;;;;;5090563;28;20602;-67
2024/03/19 05:22:54;;;;;;;34.55;22.02;;;;;;;;;;5091777;28;20020;-67
2024/03/19 05:25:20;;;;;;;31.50;23.15;;;;;;;;;;5092448;28;20024;-67
2024/03/19 05:27:47;;;;;;;30.77;22.73;;;;;;;;;;5092241;28;20024;-68
2024/03/19 05:30:13;;;;;;;33.30;21.33;;;;;;;;;;5091425;28;20046;-68
2024/03/19 05:32:40;;;;;;;30.30;22.00;;;;;;;;;;5091842;28;20020;-67
2024/03/19 05:35:06;;;;;;;31.10;21.90;;;;;;;;;;5090813;28;20060;-68
2024/03/19 05:37:32;;;;;;;29.42;21.20;;;;;;;;;;5091697;28;20024;-67
2024/03/19 05:39:58;;;;;;;25.65;20.65;;;;;;;;;;5092059;28;20024;-68
2024/03/19 05:42:24;;;;;;;29.17;21.13;;;;;;;;;;5091288;28;20497;-67
2024/03/19 05:44:53;;;;;;;34.22;21.52;;;;;;;;;;5092458;28;20024;-66
2024/03/19 05:47:19;;;;;;;30.25;21.75;;;;;;;;;;5092129;28;20104;-67
2024/03/19 05:49:45;;;;;;;27.77;20.35;;;;;;;;;;5091950;28;20035;-67
2024/03/19 05:52:11;;;;;;;24.15;18.50;;;;;;;;;;5081844;28;20199;-67
2024/03/19 05:54:37;;;;;;;24.85;18.38;;;;;;;;;;5073590;28;20568;-67
2024/03/19 05:57:03;;;;;;;24.10;18.27;;;;;;;;;;5091388;28;20024;-67
2024/03/19 05:59:30;;;;;;;26.80;17.30;;;;;;;;;;5080439;28;20025;-68
2024/03/19 06:01:56;;;;;;;23.27;16.90;;;;;;;;;;5071117;28;20017;-68
2024/03/19 06:04:22;;;;;;;23.48;16.73;;;;;;;;;;5092972;28;20027;-69
2024/03/19 06:06:48;;;;;;;27.13;16.48;;;;;;;;;;5079515;28;20020;-69
2024/03/19 06:09:15;;;;;;;24.00;17.50;;;;;;;;;;5070853;28;20055;-69
2024/03/19 06:11:41;;;;;;;22.90;16.33;;;;;;;;;;5081788;28;20027;-68
2024/03/19 06:14:07;;;;;;;28.00;17.50;;;;;;;;;;5086193;28;20016;-69
2024/03/19 06:16:34;;;;;;;22.13;16.50;;;;;;;;;;5090853;28;20031;-69
2024/03/19 06:19:00;;;;;;;23.75;16.73;;;;;;;;;;5077893;28;20437;-70
2024/03/19 06:21:26;;;;;;;30.35;18.40;;;;;;;;;;5072830;28;20016;-71
2024/03/19 06:23:52;;;;;;;33.92;21.45;;;;;;;;;;5091422;28;20409;-71
2024/03/19 06:26:18;;;;;;;26.83;19.27;;;;;;;;;;5058162;28;20470;-73
2024/03/19 06:28:44;;;;;;;33.45;20.80;;;;;;;;;;5078784;28;20036;-67
2024/03/19 06:31:10;;;;;;;35.63;21.65;;;;;;;;;;5090140;28;20044;-68
2024/03/19 06:33:36;;;;;;;35.55;22.98;;;;;;;;;;5090859;28;20028;-68
2024/03/19 06:36:03;;;;;;;32.85;21.77;;;;;;;;;;5081634;28;20090;-75
2024/03/19 06:38:29;;;;;;;32.95;20.35;;;;;;;;;;5055375;28;20551;-69
2024/03/19 06:40:55;;;;;;;33.47;19.00;;;;;;;;;;5086568;28;20028;-68
2024/03/19 06:43:21;;;;;;;31.02;20.50;;;;;;;;;;5074712;28;20037;-68
2024/03/19 06:45:47;;;;;;;33.58;21.80;;;;;;;;;;5070939;28;20024;-69
2024/03/19 06:48:13;;;;;;;27.00;19.75;;;;;;;;;;5071256;28;20040;-68
2024/03/19 06:50:39;;;;;;;33.17;21.73;;;;;;;;;;5059793;28;20054;-69
2024/03/19 06:53:05;;;;;;;35.03;21.42;;;;;;;;;;5070508;28;20107;-68
2024/03/19 06:55:32;;;;;;;35.08;21.25;;;;;;;;;;5073796;28;20415;-70
2024/03/19 06:57:58;;;;;;;37.70;21.08;;;;;;;;;;5087927;28;20092;-68
2024/03/19 07:00:26;;;;;;;40.65;23.23;;;;;;;;;;5087602;28;20471;-68
2024/03/19 07:02:52;;;;;;;38.78;22.73;;;;;;;;;;5078722;28;20048;-68
2024/03/19 07:05:18;;;;;;;39.83;23.80;;;;;;;;;;5092174;28;20043;-68
2024/03/19 07:07:44;;;;;;;46.00;26.23;;;;;;;;;;5071099;28;20024;-68
2024/03/19 07:10:11;;;;;;;41.30;25.38;;;;;;;;;;5070361;28;20074;-69
2024/03/19 07:12:39;;;;;;;40.92;25.95;;;;;;;;;;5085796;28;20032;-69
2024/03/19 07:15:10;;;;;;;44.25;25.88;;;;;;;;;;5085470;28;20550;-68
2024/03/19 07:17:36;;;;;;;46.17;27.27;;;;;;;;;;5070348;28;20119;-68
2024/03/19 07:20:02;;;;;;;49.75;26.17;;;;;;;;;;5067600;28;20270;-69
2024/03/19 07:22:28;;;;;;;45.35;26.02;;;;;;;;;;5087555;28;20437;-69
2024/03/19 07:24:54;;;;;;;52.13;26.83;;;;;;;;;;5089773;28;20028;-70
2024/03/19 07:27:20;;;;;;;53.15;26.80;;;;;;;;;;5093809;28;20024;-69
2024/03/19 07:29:46;;;;;;;58.92;29.58;;;;;;;;;;5086032;28;20545;-67
2024/03/19 07:32:12;;;;;;;56.65;27.98;;;;;;;;;;5074007;28;20321;-68
2024/03/19 07:34:40;;;;;;;52.90;29.30;;;;;;;;;;5093300;28;20028;-66
2024/03/19 07:37:07;;;;;;;46.38;26.98;;;;;;;;;;5087849;28;20182;-67
2024/03/19 07:39:33;;;;;;;53.83;28.55;;;;;;;;;;5056368;28;20029;-69
2024/03/19 07:41:59;;;;;;;54.58;28.27;;;;;;;;;;5093879;28;20024;-68
2024/03/19 07:44:25;;;;;;;53.80;27.70;;;;;;;;;;5068990;28;20047;-72
2024/03/19 07:46:51;;;;;;;53.47;27.80;;;;;;;;;;5076305;28;20029;-69
2024/03/19 07:49:17;;;;;;;53.10;28.60;;;;;;;;;;5094021;28;20085;-68
2024/03/19 07:51:43;;;;;;;44.70;26.13;;;;;;;;;;5084546;28;20399;-69
2024/03/19 07:54:09;;;;;;;53.70;28.10;;;;;;;;;;5080885;28;20032;-67
2024/03/19 07:56:40;;;;;;;50.17;26.55;;;;;;;;;;5093893;28;20038;-69
2024/03/19 07:59:07;;;;;;;49.85;25.33;;;;;;;;;;5085929;28;20020;-69
2024/03/19 08:01:33;;;;;;;47.55;24.77;;;;;;;;;;5084713;28;20021;-68
2024/03/19 08:03:59;;;;;;;47.58;24.75;;;;;;;;;;5066390;28;20025;-69
2024/03/19 08:06:26;;;;;;;50.95;25.70;;;;;;;;;;5081322;28;20103;-67
2024/03/19 08:08:52;;;;;;;50.47;26.33;;;;;;;;;;5085644;28;20116;-68
2024/03/19 08:11:18;;;;;;;45.45;23.73;;;;;;;;;;5082071;28;20584;-66
2024/03/19 08:13:44;;;;;;;48.03;24.05;;;;;;;;;;5084798;28;20503;-69
2024/03/19 08:16:11;;;;;;;59.83;26.58;;;;;;;;;;5072417;28;20028;-69
2024/03/19 08:18:37;;;;;;;62.08;25.48;;;;;;;;;;5083001;28;20486;-68
2024/03/19 08:21:03;;;;;;;50.55;23.63;;;;;;;;;;5093970;28;20511;-68
2024/03/19 08:23:29;;;;;;;52.63;25.98;;;;;;;;;;5075137;28;20043;-68
2024/03/19 08:25:56;;;;;;;51.45;25.75;;;;;;;;;;5091935;28;20031;-67
2024/03/19 08:28:22;;;;;;;55.45;24.88;;;;;;;;;;5083726;28;20039;-68
2024/03/19 08:30:50;;;;;;;50.63;25.35;;;;;;;;;;5074510;28;20429;-68
2024/03/19 08:33:16;;;;;;;51.97;26.52;;;;;;;;;;5074567;28;20031;-68
2024/03/19 08:35:42;;;;;;;51.85;25.10;;;;;;;;;;5089027;28;20024;-68
2024/03/19 08:38:08;;;;;;;51.58;24.58;;;;;;;;;;5063955;28;20362;-68
2024/03/19 08:40:34;;;;;;;56.17;24.23;;;;;;;;;;5082476;28;20498;-69
2024/03/19 08:43:00;;;;;;;45.55;23.88;;;;;;;;;;5085074;28;20024;-67
2024/03/19 08:45:26;;;;;;;52.95;26.25;;;;;;;;;;5091197;28;20039;-67
2024/03/19 08:47:52;;;;;;;54.72;24.67;;;;;;;;;;5083921;28;20355;-67
2024/03/19 08:50:18;;;;;;;56.85;26.92;;;;;;;;;;5073866;28;20046;-68
2024/03/19 08:52:44;;;;;;;55.40;27.23;;;;;;;;;;5088228;28;20035;-71
2024/03/19 08:55:12;;;;;;;50.47;27.08;;;;;;;;;;5070032;28;20028;-72
2024/03/19 08:57:38;;;;;;;54.80;25.95;;;;;;;;;;5089986;28;20024;-69
2024/03/19 09:00:10;;;;;;;53.80;27.35;;;;;;;;;;5083344;28;20027;-69
2024/03/19 09:02:38;;;;;;;52.28;25.58;;;;;;;;;;5062153;28;20032;-69
2024/03/19 09:05:05;;;;;;;52.15;25.45;;;;;;;;;;5072095;28;20490;-69
2024/03/19 09:07:31;;;;;;;51.58;26.13;;;;;;;;;;5074293;28;20126;-68
2024/03/19 09:09:57;;;;;;;51.25;26.17;;;;;;;;;;5093084;28;20016;-69
2024/03/19 09:12:23;;;;;;;47.33;25.98;;;;;;;;;;5092672;28;20022;-68
2024/03/19 09:14:49;;;;;;;50.20;26.05;;;;;;;;;;5093200;28;20102;-69
2024/03/19 09:17:16;;;;;;;44.75;24.83;;;;;;;;;;5077290;28;20017;-70
2024/03/19 09:19:42;;;;;;;48.90;27.15;;;;;;;;;;5074840;28;20478;-69
2024/03/19 09:22:08;;;;;;;43.95;23.45;;;;;;;;;;5071912;28;20529;-68
2024/03/19 09:24:35;;;;;;;52.40;26.77;;;;;;;;;;5083311;28;20032;-68
2024/03/19 09:27:03;;;;;;;45.42;24.98;;;;;;;;;;5087788;28;20512;-68
2024/03/19 09:29:30;;;;;;;46.72;24.33;;;;;;;;;;5073455;28;20477;-68
2024/03/19 09:31:57;;;;;;;44.63;24.98;;;;;;;;;;5092915;28;20024;-69
2024/03/19 09:34:23;;;;;;;44.85;24.98;;;;;;;;;;5095192;28;20016;-68
2024/03/19 09:36:49;;;;;;;45.03;24.25;;;;;;;;;;5056003;28;20040;-68
2024/03/19 09:39:15;;;;;;;48.30;26.08;;;;;;;;;;5080957;28;20026;-68
2024/03/19 09:41:55;;;;;;;47.80;25.52;;;;;;;;;;5079547;28;20455;-68
2024/03/19 09:44:21;;;;;;;43.45;23.02;;;;;;;;;;5062142;28;20424;-68
2024/03/19 09:46:48;;;;;;;41.63;25.27;;;;;;;;;;5071607;28;20445;-68
2024/03/19 09:49:17;;;;;;;43.33;23.13;;;;;;;;;;5089581;28;20085;-68
2024/03/19 09:51:44;;;;;;;41.60;24.60;;;;;;;;;;5075639;28;20055;-68
2024/03/19 09:54:16;;;;;;;51.55;25.23;;;;;;;;;;5071560;28;20033;-69
2024/03/19 09:56:47;;;;;;;41.30;23.50;;;;;;;;;;5071861;28;20111;-69
2024/03/19 09:59:16;;;;;;;40.03;23.87;;;;;;;;;;5087208;28;20020;-67
2024/03/19 10:01:43;;;;;;;45.92;22.83;;;;;;;;;;5090300;28;20752;-68
2024/03/19 10:04:15;;;;;;;43.72;24.75;;;;;;;;;;5053473;28;20044;-67
2024/03/19 10:06:42;;;;;;;39.53;23.05;;;;;;;;;;5078944;28;20490;-67
2024/03/19 10:09:09;;;;;;;45.22;23.35;;;;;;;;;;5073156;28;20054;-69
2024/03/19 10:11:35;;;;;;;41.17;23.48;;;;;;;;;;5085348;28;20108;-68
2024/03/19 10:14:01;;;;;;;39.80;23.88;;;;;;;;;;5089817;28;20039;-69
2024/03/19 10:16:29;;;;;;;41.45;24.02;;;;;;;;;;5091131;28;20038;-69
2024/03/19 10:18:56;;;;;;;40.45;22.30;;;;;;;;;;5078902;28;20103;-69
2024/03/19 10:21:22;;;;;;;38.90;23.30;;;;;;;;;;5076662;28;20050;-68
2024/03/19 10:23:48;;;;;;;41.17;24.70;;;;;;;;;;5089614;28;20131;-69
2024/03/19 10:26:16;;;;;;;42.88;23.50;;;;;;;;;;5071082;28;20063;-69
2024/03/19 10:28:43;;;;;;;41.60;24.52;;;;;;;;;;5083713;28;20024;-69
2024/03/19 10:31:12;;;;;;;42.60;23.85;;;;;;;;;;5072180;28;20039;-69
2024/03/19 10:33:38;;;;;;;44.28;23.95;;;;;;;;;;5071033;28;20028;-69
2024/03/19 10:36:05;;;;;;;40.80;23.13;;;;;;;;;;5065332;28;20430;-71
2024/03/19 10:38:31;;;;;;;37.17;22.77;;;;;;;;;;5087206;28;20060;-69
2024/03/19 10:40:57;;;;;;;33.33;21.60;;;;;;;;;;5069863;28;20051;-68
2024/03/19 10:43:25;;;;;;;30.33;19.58;;;;;;;;;;5083029;28;20103;-68
2024/03/19 10:45:52;;;;;;;31.77;20.33;;;;;;;;;;5090781;28;20127;-68
2024/03/19 10:48:20;;;;;;;29.35;19.23;;;;;;;;;;5075733;28;20107;-69
2024/03/19 10:50:48;;;;;;;27.80;19.38;;;;;;;;;;5076739;28;20021;-70
2024/03/19 10:53:18;;;;;;;31.60;20.65;;;;;;;;;;5076246;28;20036;-67
2024/03/19 10:55:50;;;;;;;30.50;19.60;;;;;;;;;;5082794;28;20475;-69
2024/03/19 10:58:18;;;;;;;31.50;18.98;;;;;;;;;;5081757;28;20023;-69
2024/03/19 11:00:44;;;;;;;32.58;18.83;;;;;;;;;;5080246;28;20026;-70
2024/03/19 11:03:18;;;;;;;30.23;19.13;;;;;;;;;;5080684;28;20013;-68
2024/03/19 11:05:48;;;;;;;29.02;19.30;;;;;;;;;;5073404;28;20024;-70
2024/03/19 11:08:18;;;;;;;28.92;17.92;;;;;;;;;;5081841;28;20028;-68
2024/03/19 11:10:44;;;;;;;26.58;18.85;;;;;;;;;;5081827;28;20438;-69
2024/03/19 11:13:17;;;;;;;29.92;19.20;;;;;;;;;;5081821;28;20047;-71
2024/03/19 11:15:44;;;;;;;30.95;18.77;;;;;;;;;;5082683;28;20090;-70
2024/03/19 11:18:13;;;;;;;27.05;18.20;;;;;;;;;;5065207;28;20046;-70
2024/03/19 11:20:44;;;;;;;32.58;19.17;;;;;;;;;;5087297;28;20130;-69
2024/03/19 11:23:19;;;;;;;28.80;19.58;;;;;;;;;;5080803;28;20020;-69
2024/03/19 11:25:49;;;;;;;29.73;19.05;;;;;;;;;;5089162;28;20074;-69
2024/03/19 11:28:36;;;;;;;31.58;19.38;;;;;;;;;;5074159;28;20020;-69
2024/03/19 11:31:04;;;;;;;35.75;20.95;;;;;;;;;;5087428;28;20081;-69
2024/03/19 11:33:30;;;;;;;28.05;19.48;;;;;;;;;;5079930;28;20028;-69
2024/03/19 11:35:57;;;;;;;24.58;17.67;;;;;;;;;;5052049;28;20103;-70
2024/03/19 11:38:23;;;;;;;27.95;18.83;;;;;;;;;;5087351;28;20135;-68
2024/03/19 11:40:49;;;;;;;28.58;19.40;;;;;;;;;;5084548;28;20057;-71
2024/03/19 11:43:16;;;;;;;29.88;18.15;;;;;;;;;;5070518;28;20539;-69
2024/03/19 11:45:47;;;;;;;28.88;17.80;;;;;;;;;;5087632;28;20038;-68
2024/03/19 11:48:16;;;;;;;30.75;17.67;;;;;;;;;;5084530;28;20084;-70
2024/03/19 11:50:47;;;;;;;24.15;17.67;;;;;;;;;;5070423;28;20032;-71
2024/03/19 11:53:22;;;;;;;28.85;17.45;;;;;;;;;;5084333;28;20024;-69
2024/03/19 11:55:49;;;;;;;26.88;18.30;;;;;;;;;;5063752;28;20055;-69
2024/03/19 11:58:15;;;;;;;24.23;16.55;;;;;;;;;;5070588;28;20391;-68
2024/03/19 12:00:41;;;;;;;27.05;17.42;;;;;;;;;;5084849;28;20047;-70
2024/03/19 12:03:07;;;;;;;27.25;18.25;;;;;;;;;;5088735;28;20044;-68
2024/03/19 12:05:34;;;;;;;27.63;18.25;;;;;;;;;;5089938;28;20039;-68
2024/03/19 12:08:01;;;;;;;24.67;17.45;;;;;;;;;;5081782;28;20027;-69
2024/03/19 12:10:28;;;;;;;28.60;19.65;;;;;;;;;;5086819;28;20040;-70
2024/03/19 12:12:57;;;;;;;26.73;17.90;;;;;;;;;;5080262;28;20525;-70
2024/03/19 12:15:24;;;;;;;25.23;17.90;;;;;;;;;;5075239;28;20139;-68
2024/03/19 12:17:51;;;;;;;24.38;17.88;;;;;;;;;;5067030;28;20478;-69
2024/03/19 12:20:18;;;;;;;26.35;17.83;;;;;;;;;;5082669;28;20036;-70
2024/03/19 12:22:48;;;;;;;23.05;17.38;;;;;;;;;;5060385;28;20020;-70
2024/03/19 12:25:15;;;;;;;28.27;17.63;;;;;;;;;;5092070;28;20040;-70
2024/03/19 12:27:42;;;;;;;24.52;17.27;;;;;;;;;;5093309;28;20081;-70
2024/03/19 12:30:14;;;;;;;26.73;17.67;;;;;;;;;;5093736;28;20023;-70
2024/03/19 12:32:47;;;;;;;26.52;17.10;;;;;;;;;;5072992;28;20509;-70
2024/03/19 12:35:14;;;;;;;25.05;16.42;;;;;;;;;;5090078;28;20031;-69
2024/03/19 12:37:41;;;;;;;23.50;14.70;;;;;;;;;;5093458;28;20016;-70
2024/03/19 12:40:10;;;;;;;24.27;16.00;;;;;;;;;;5092625;28;20024;-70
2024/03/19 12:42:36;;;;;;;18.08;14.13;;;;;;;;;;5080450;28;20058;-70
2024/03/19 12:45:03;;;;;;;20.55;13.65;;;;;;;;;;5073743;28;20541;-69
2024/03/19 12:47:29;;;;;;;20.67;15.18;;;;;;;;;;5073472;28;20036;-70
2024/03/19 12:49:55;;;;;;;24.08;15.13;;;;;;;;;;5068231;28;20024;-69
2024/03/19 12:52:24;;;;;;;20.83;14.30;;;;;;;;;;5072868;28;20495;-69
2024/03/19 12:54:50;;;;;;;18.15;13.35;;;;;;;;;;5063273;28;20028;-70
2024/03/19 12:57:19;;;;;;;22.42;15.38;;;;;;;;;;5072938;28;20407;-70
2024/03/19 12:59:45;;;;;;;22.45;15.38;;;;;;;;;;5081034;28;20105;-71
2024/03/19 13:02:11;;;;;;;20.63;16.08;;;;;;;;;;5083138;28;20024;-70
2024/03/19 13:04:37;;;;;;;22.52;15.07;;;;;;;;;;5092200;28;20028;-71
2024/03/19 13:07:04;;;;;;;21.88;14.65;;;;;;;;;;5088877;28;20046;-68
2024/03/19 13:09:30;;;;;;;19.13;15.13;;;;;;;;;;5089889;28;20542;-71
2024/03/19 13:11:56;;;;;;;19.75;14.13;;;;;;;;;;5078099;28;20032;-71
2024/03/19 13:14:22;;;;;;;22.00;13.75;;;;;;;;;;5072771;28;20029;-69
2024/03/19 13:16:48;;;;;;;23.00;13.43;;;;;;;;;;5072287;28;20029;-65
2024/03/19 13:19:15;;;;;;;20.52;14.30;;;;;;;;;;5091465;28;20069;-70
2024/03/19 13:21:41;;;;;;;19.88;14.15;;;;;;;;;;5090623;28;20025;-70
2024/03/19 13:24:08;;;;;;;25.80;15.18;;;;;;;;;;5076871;28;20093;-71
2024/03/19 13:26:34;;;;;;;23.42;13.32;;;;;;;;;;5081672;28;20039;-68
2024/03/19 13:29:00;;;;;;;20.38;13.50;;;;;;;;;;5091256;28;20061;-70
2024/03/19 13:31:26;;;;;;;24.10;14.73;;;;;;;;;;5088283;28;20031;-71
2024/03/19 13:33:52;;;;;;;21.50;13.00;;;;;;;;;;5080884;28;20103;-69
2024/03/19 13:36:19;;;;;;;19.45;13.50;;;;;;;;;;5066454;28;20115;-70
2024/03/19 13:38:51;;;;;;;16.83;11.43;;;;;;;;;;5089710;28;20024;-69
2024/03/19 13:41:19;;;;;;;18.17;11.57;;;;;;;;;;5078926;28;20458;-71
2024/03/19 13:43:45;;;;;;;14.40;11.02;;;;;;;;;;5087428;28;20024;-69
2024/03/19 13:46:13;;;;;;;18.05;11.18;;;;;;;;;;5090516;28;20434;-70
2024/03/19 13:48:39;;;;;;;22.50;13.45;;;;;;;;;;5088440;28;20040;-69
2024/03/19 13:51:06;;;;;;;17.90;12.43;;;;;;;;;;5084067;28;20047;-68
2024/03/19 13:53:32;;;;;;;20.17;11.32;;;;;;;;;;5088558;28;20070;-68
2024/03/19 13:55:58;;;;;;;15.80;11.73;;;;;;;;;;5090158;28;20502;-67
2024/03/19 13:58:25;;;;;;;15.10;10.90;;;;;;;;;;5088128;28;20127;-70
2024/03/19 14:00:54;;;;;;;17.75;10.35;;;;;;;;;;5070657;28;20081;-70
2024/03/19 14:03:21;;;;;;;17.73;11.10;;;;;;;;;;5075716;28;20039;-70
2024/03/19 14:05:49;;;;;;;15.30;11.00;;;;;;;;;;5090643;28;20114;-68
2024/03/19 14:08:18;;;;;;;13.57;10.38;;;;;;;;;;5090071;28;20047;-70
2024/03/19 14:10:44;;;;;;;13.75;9.38;;;;;;;;;;5069707;28;20070;-70
2024/03/19 14:13:10;;;;;;;17.77;10.23;;;;;;;;;;5069694;28;20483;-70